Time;durP1;ratioP1;P1;durP2;ratioP2;P2;SDS_P1;SDS_P2;PMS_P1;PMS_P2;Temp;Humidity;BMP_temperature;BMP_pressure;BME280_temperature;BME280_humidity;BME280_pressure;Samples;Min_cycle;Max_cycle;Signal;HPM_P1;HPM_P2
2022/05/25 00:02:04;;;;;;;1.05;0.40;;;;;;;;;;5140799;27;20199;-63
2022/05/25 00:04:32;;;;;;;0.98;0.60;;;;;;;;;;5140692;27;20217;-62
2022/05/25 00:07:00;;;;;;;1.08;0.55;;;;;;;;;;5140602;27;20212;-62
2022/05/25 00:09:28;;;;;;;0.80;0.50;;;;;;;;;;5140405;27;20284;-62
2022/05/25 00:11:55;;;;;;;0.35;0.35;;;;;;;;;;5140923;27;20229;-63
2022/05/25 00:14:24;;;;;;;0.82;0.45;;;;;;;;;;5140528;27;20212;-63
2022/05/25 00:16:51;;;;;;;0.60;0.32;;;;;;;;;;5140651;27;20495;-62
2022/05/25 00:22:04;;;;;;;0.70;0.40;;;;;;;;;;5139915;27;20197;-62
2022/05/25 00:24:31;;;;;;;0.93;0.43;;;;;;;;;;5140467;27;20210;-62
2022/05/25 00:26:59;;;;;;;0.70;0.50;;;;;;;;;;5140610;27;20213;-62
2022/05/25 00:29:27;;;;;;;1.20;0.47;;;;;;;;;;5140302;27;20203;-62
2022/05/25 00:31:55;;;;;;;0.40;0.40;;;;;;;;;;5139893;27;20222;-62
2022/05/25 00:34:23;;;;;;;0.40;0.40;;;;;;;;;;5138911;27;20203;-62
2022/05/25 00:36:50;;;;;;;0.60;0.52;;;;;;;;;;5140172;27;20205;-62
2022/05/25 00:39:17;;;;;;;0.75;0.40;;;;;;;;;;5140180;27;20202;-62
2022/05/25 00:41:45;;;;;;;0.65;0.45;;;;;;;;;;5140452;27;20217;-63
2022/05/25 00:44:12;;;;;;;0.73;0.50;;;;;;;;;;5139430;27;20601;-62
2022/05/25 00:46:41;;;;;;;0.80;0.50;;;;;;;;;;5140144;27;20202;-62
2022/05/25 00:49:14;;;;;;;0.50;0.50;;;;;;;;;;5139797;27;20288;-62
2022/05/25 00:51:43;;;;;;;0.40;0.40;;;;;;;;;;5139624;27;20222;-62
2022/05/25 00:54:12;;;;;;;0.50;0.50;;;;;;;;;;5139159;27;20206;-62
2022/05/25 00:56:42;;;;;;;0.52;0.52;;;;;;;;;;5139331;27;20230;-62
2022/05/25 00:59:10;;;;;;;0.85;0.45;;;;;;;;;;5139501;27;20206;-62
2022/05/25 01:01:38;;;;;;;0.65;0.50;;;;;;;;;;5139681;27;20198;-62
2022/05/25 01:04:07;;;;;;;0.43;0.40;;;;;;;;;;5139785;27;20573;-62
2022/05/25 01:06:55;;;;;;;0.50;0.50;;;;;;;;;;5139772;27;20212;-62
2022/05/25 01:09:32;;;;;;;0.40;0.40;;;;;;;;;;5133358;27;20210;-62
2022/05/25 01:12:07;;;;;;;0.47;0.47;;;;;;;;;;5139638;27;20286;-62
2022/05/25 01:14:42;;;;;;;0.50;0.50;;;;;;;;;;5138523;27;20589;-62
2022/05/25 01:17:15;;;;;;;0.45;0.45;;;;;;;;;;5139465;27;20266;-62
2022/05/25 01:20:09;;;;;;;0.43;0.40;;;;;;;;;;5139278;27;20217;-62
2022/05/25 01:22:52;;;;;;;0.40;0.40;;;;;;;;;;5138986;27;20209;-62
2022/05/25 01:25:26;;;;;;;0.60;0.60;;;;;;;;;;5136395;27;20213;-63
2022/05/25 01:27:54;;;;;;;0.50;0.50;;;;;;;;;;5139050;27;20198;-62
2022/05/25 01:30:24;;;;;;;0.50;0.50;;;;;;;;;;5138939;27;20296;-62
2022/05/25 01:33:00;;;;;;;1.05;0.60;;;;;;;;;;5138831;27;20210;-62
2022/05/25 01:35:34;;;;;;;0.75;0.63;;;;;;;;;;5139135;27;20229;-62
2022/05/25 01:38:06;;;;;;;0.60;0.60;;;;;;;;;;5139190;27;20202;-62
2022/05/25 01:40:38;;;;;;;0.43;0.43;;;;;;;;;;5138785;27;20208;-62
2022/05/25 01:43:08;;;;;;;0.50;0.50;;;;;;;;;;5138624;27;20510;-62
2022/05/25 01:45:40;;;;;;;0.70;0.47;;;;;;;;;;5138495;27;20206;-62
2022/05/25 01:48:10;;;;;;;1.00;0.60;;;;;;;;;;5139467;27;20489;-62
2022/05/25 01:50:39;;;;;;;0.90;0.60;;;;;;;;;;5139064;27;20566;-62
2022/05/25 01:53:09;;;;;;;0.57;0.57;;;;;;;;;;5138977;27;20210;-62
2022/05/25 01:55:38;;;;;;;0.52;0.52;;;;;;;;;;5138805;27;20242;-62
2022/05/25 01:58:09;;;;;;;0.52;0.43;;;;;;;;;;5138772;27;20213;-62
2022/05/25 02:00:39;;;;;;;1.15;0.50;;;;;;;;;;5138873;27;20574;-63
2022/05/25 02:06:21;;;;;;;0.60;0.45;;;;;;;;;;5138452;27;20193;-62
2022/05/25 02:08:57;;;;;;;0.50;0.50;;;;;;;;;;5138889;27;20213;-62
2022/05/25 02:11:28;;;;;;;0.57;0.50;;;;;;;;;;5138621;27;20225;-62
2022/05/25 02:14:00;;;;;;;0.47;0.45;;;;;;;;;;5138222;27;20615;-62
2022/05/25 02:16:36;;;;;;;0.60;0.55;;;;;;;;;;5138681;27;20209;-62
2022/05/25 02:19:07;;;;;;;0.70;0.70;;;;;;;;;;5138650;28;20202;-62
2022/05/25 02:21:38;;;;;;;0.75;0.50;;;;;;;;;;5138616;28;20209;-62
2022/05/25 02:24:09;;;;;;;0.60;0.60;;;;;;;;;;5138412;28;20483;-62
2022/05/25 02:26:39;;;;;;;0.50;0.50;;;;;;;;;;5138287;28;20209;-62
2022/05/25 02:29:10;;;;;;;0.60;0.55;;;;;;;;;;5138149;28;20197;-62
2022/05/25 02:31:42;;;;;;;0.40;0.40;;;;;;;;;;5138350;28;20226;-62
2022/05/25 02:34:12;;;;;;;0.63;0.60;;;;;;;;;;5138671;28;20210;-62
2022/05/25 02:36:41;;;;;;;0.50;0.50;;;;;;;;;;5138362;28;20605;-62
2022/05/25 02:39:09;;;;;;;0.50;0.45;;;;;;;;;;5138480;28;20210;-62
2022/05/25 02:41:37;;;;;;;0.60;0.60;;;;;;;;;;5138579;28;20484;-62
2022/05/25 02:44:05;;;;;;;0.68;0.63;;;;;;;;;;5138624;28;20203;-62
2022/05/25 02:46:32;;;;;;;0.52;0.52;;;;;;;;;;5138943;28;20323;-63
2022/05/25 02:49:01;;;;;;;0.50;0.50;;;;;;;;;;5138572;28;20213;-63
2022/05/25 02:51:29;;;;;;;0.73;0.45;;;;;;;;;;5137671;28;20519;-63
2022/05/25 02:53:56;;;;;;;0.60;0.60;;;;;;;;;;5137779;28;20267;-62
2022/05/25 02:56:23;;;;;;;0.50;0.50;;;;;;;;;;5137913;28;20234;-62
2022/05/25 02:58:50;;;;;;;0.70;0.65;;;;;;;;;;5140727;27;20202;-63
2022/05/25 03:01:18;;;;;;;0.60;0.60;;;;;;;;;;5142297;27;20198;-63
2022/05/25 03:03:45;;;;;;;0.52;0.50;;;;;;;;;;5142701;27;20216;-63
2022/05/25 03:06:14;;;;;;;0.70;0.50;;;;;;;;;;5142244;27;20208;-62
2022/05/25 03:08:42;;;;;;;0.65;0.60;;;;;;;;;;5142384;27;20202;-63
2022/05/25 03:11:10;;;;;;;0.70;0.70;;;;;;;;;;5142448;27;20226;-63
2022/05/25 03:13:37;;;;;;;0.73;0.70;;;;;;;;;;5142208;27;20201;-63
2022/05/25 03:16:07;;;;;;;0.68;0.68;;;;;;;;;;5142096;27;20202;-63
2022/05/25 03:18:35;;;;;;;0.80;0.50;;;;;;;;;;5141833;27;20629;-62
2022/05/25 03:21:02;;;;;;;0.57;0.57;;;;;;;;;;5141836;27;20323;-62
2022/05/25 03:23:31;;;;;;;0.52;0.52;;;;;;;;;;5141472;27;20479;-62
2022/05/25 03:25:58;;;;;;;1.20;0.70;;;;;;;;;;5141970;27;20620;-62
2022/05/25 03:28:25;;;;;;;0.50;0.50;;;;;;;;;;5141476;27;20237;-63
2022/05/25 03:30:54;;;;;;;0.43;0.43;;;;;;;;;;5141441;27;20199;-62
2022/05/25 03:33:22;;;;;;;1.58;0.85;;;;;;;;;;5141622;27;20304;-63
2022/05/25 03:35:49;;;;;;;0.65;0.63;;;;;;;;;;5141371;27;20202;-61
2022/05/25 03:38:16;;;;;;;0.73;0.70;;;;;;;;;;5141755;27;20211;-62
2022/05/25 03:40:46;;;;;;;0.80;0.65;;;;;;;;;;5141523;27;20202;-62
2022/05/25 03:43:15;;;;;;;0.63;0.60;;;;;;;;;;5141206;27;20284;-62
2022/05/25 03:45:43;;;;;;;0.60;0.60;;;;;;;;;;5141305;27;20202;-62
2022/05/25 03:48:11;;;;;;;1.13;0.70;;;;;;;;;;5140840;27;20225;-63
2022/05/25 03:50:39;;;;;;;0.50;0.50;;;;;;;;;;5140700;27;20202;-62
2022/05/25 03:53:07;;;;;;;0.88;0.82;;;;;;;;;;5140339;27;20225;-62
2022/05/25 03:55:35;;;;;;;0.60;0.60;;;;;;;;;;5140534;27;20321;-62
2022/05/25 03:58:03;;;;;;;0.80;0.73;;;;;;;;;;5140579;27;20206;-63
2022/05/25 04:00:32;;;;;;;1.50;0.60;;;;;;;;;;5140480;27;20202;-62
2022/05/25 04:03:02;;;;;;;0.50;0.50;;;;;;;;;;5140250;27;20198;-63
2022/05/25 04:05:30;;;;;;;0.70;0.70;;;;;;;;;;5140091;27;20202;-63
2022/05/25 04:07:58;;;;;;;1.38;0.60;;;;;;;;;;5139550;27;20198;-63
2022/05/25 04:10:26;;;;;;;0.60;0.60;;;;;;;;;;5138313;27;20202;-63
2022/05/25 04:12:53;;;;;;;1.15;0.60;;;;;;;;;;5140109;27;20218;-63
2022/05/25 04:15:23;;;;;;;0.77;0.60;;;;;;;;;;5140257;27;20206;-63
2022/05/25 04:17:50;;;;;;;0.60;0.60;;;;;;;;;;5140159;27;20194;-62
2022/05/25 04:20:18;;;;;;;0.70;0.70;;;;;;;;;;5139614;27;20213;-63
2022/05/25 04:22:46;;;;;;;1.00;0.80;;;;;;;;;;5139560;27;20209;-63
2022/05/25 04:25:15;;;;;;;0.70;0.70;;;;;;;;;;5140036;27;20203;-62
2022/05/25 04:27:44;;;;;;;0.80;0.80;;;;;;;;;;5138959;27;20195;-63
2022/05/25 04:30:14;;;;;;;0.70;0.70;;;;;;;;;;5138539;27;20492;-62
2022/05/25 04:32:43;;;;;;;1.17;0.70;;;;;;;;;;5139213;27;20236;-62
2022/05/25 04:35:11;;;;;;;0.60;0.60;;;;;;;;;;5139389;27;20198;-62
2022/05/25 04:37:52;;;;;;;0.75;0.70;;;;;;;;;;5138831;27;20190;-63
2022/05/25 04:40:25;;;;;;;1.35;0.80;;;;;;;;;;5139616;27;20309;-63
2022/05/25 04:42:53;;;;;;;0.60;0.60;;;;;;;;;;5138728;27;20210;-63
2022/05/25 04:45:21;;;;;;;0.70;0.70;;;;;;;;;;5138444;27;20194;-63
2022/05/25 04:47:49;;;;;;;1.10;0.77;;;;;;;;;;5137790;27;20206;-63
2022/05/25 04:50:18;;;;;;;0.85;0.80;;;;;;;;;;5138893;27;20209;-62
2022/05/25 04:52:45;;;;;;;0.70;0.70;;;;;;;;;;5138723;27;20226;-63
2022/05/25 04:57:19;;;;;;;0.70;0.70;;;;;;;;;;5137937;27;20210;-63
2022/05/25 04:58:00;;;;;;;0.60;0.60;;;;;;;;;;5137500;27;20570;-63
2022/05/25 05:00:28;;;;;;;0.70;0.70;;;;;;;;;;5137466;27;20629;-63
2022/05/25 05:02:56;;;;;;;0.60;0.60;;;;;;;;;;5137477;27;20210;-62
2022/05/25 05:05:24;;;;;;;0.90;0.90;;;;;;;;;;5137500;27;20201;-64
2022/05/25 05:07:51;;;;;;;0.70;0.70;;;;;;;;;;5136573;27;20232;-63
2022/05/25 05:10:19;;;;;;;0.80;0.60;;;;;;;;;;5137163;27;20198;-63
2022/05/25 05:12:46;;;;;;;0.93;0.80;;;;;;;;;;5137308;27;20237;-62
2022/05/25 05:15:14;;;;;;;0.70;0.70;;;;;;;;;;5137463;27;20202;-63
2022/05/25 05:17:41;;;;;;;0.70;0.70;;;;;;;;;;5136658;27;20222;-63
2022/05/25 05:20:11;;;;;;;0.70;0.70;;;;;;;;;;5136529;27;20206;-63
2022/05/25 05:22:38;;;;;;;0.68;0.68;;;;;;;;;;5136981;27;20204;-63
2022/05/25 05:25:07;;;;;;;0.90;0.90;;;;;;;;;;5136413;27;20588;-67
2022/05/25 05:27:35;;;;;;;0.80;0.80;;;;;;;;;;5135971;27;20764;-63
2022/05/25 05:30:04;;;;;;;0.80;0.80;;;;;;;;;;5135128;27;20206;-63
2022/05/25 05:32:31;;;;;;;0.80;0.80;;;;;;;;;;5136588;27;20422;-63
2022/05/25 05:34:59;;;;;;;0.70;0.60;;;;;;;;;;5137162;27;20202;-63
2022/05/25 05:37:31;;;;;;;2.25;0.80;;;;;;;;;;5135526;27;20194;-63
2022/05/25 05:39:58;;;;;;;1.35;0.70;;;;;;;;;;5135575;27;20231;-63
2022/05/25 05:42:27;;;;;;;0.70;0.70;;;;;;;;;;5135191;27;20297;-63
2022/05/25 05:44:55;;;;;;;0.70;0.70;;;;;;;;;;5135648;27;20603;-63
2022/05/25 05:47:24;;;;;;;0.80;0.80;;;;;;;;;;5136411;27;20209;-62
2022/05/25 05:49:52;;;;;;;0.70;0.70;;;;;;;;;;5136119;27;20208;-63
2022/05/25 05:52:19;;;;;;;1.20;0.63;;;;;;;;;;5136044;27;20226;-62
2022/05/25 05:54:48;;;;;;;0.93;0.80;;;;;;;;;;5135324;27;20202;-63
2022/05/25 05:57:16;;;;;;;0.70;0.70;;;;;;;;;;5135552;27;20236;-63
2022/05/25 05:59:44;;;;;;;1.02;0.75;;;;;;;;;;5134385;27;20202;-63
2022/05/25 06:02:12;;;;;;;0.70;0.70;;;;;;;;;;5134785;27;20297;-63
2022/05/25 06:04:39;;;;;;;0.80;0.80;;;;;;;;;;5135725;27;20217;-63
2022/05/25 06:07:07;;;;;;;0.70;0.70;;;;;;;;;;5134854;27;20272;-63
2022/05/25 06:09:34;;;;;;;0.80;0.80;;;;;;;;;;5135587;27;20203;-63
2022/05/25 06:12:03;;;;;;;0.80;0.80;;;;;;;;;;5134968;27;20237;-63
2022/05/25 06:14:30;;;;;;;0.93;0.85;;;;;;;;;;5136458;27;20209;-63
2022/05/25 06:19:43;;;;;;;0.70;0.70;;;;;;;;;;5129416;27;20201;-63
2022/05/25 06:22:12;;;;;;;0.70;0.70;;;;;;;;;;5135286;28;20209;-63
2022/05/25 06:24:40;;;;;;;0.80;0.70;;;;;;;;;;5135761;28;20202;-63
2022/05/25 06:27:11;;;;;;;1.05;0.70;;;;;;;;;;5135531;28;20205;-63
2022/05/25 06:29:39;;;;;;;2.17;1.00;;;;;;;;;;5135977;28;20455;-63
2022/05/25 06:32:08;;;;;;;1.38;0.90;;;;;;;;;;5136290;27;20210;-62
2022/05/25 06:34:36;;;;;;;1.33;0.90;;;;;;;;;;5139569;27;20212;-62
2022/05/25 06:37:04;;;;;;;1.00;0.90;;;;;;;;;;5139314;27;20203;-62
2022/05/25 06:39:35;;;;;;;1.83;0.85;;;;;;;;;;5140115;27;20554;-63
2022/05/25 06:42:03;;;;;;;1.58;0.82;;;;;;;;;;5139578;27;20206;-63
2022/05/25 06:44:31;;;;;;;2.38;0.73;;;;;;;;;;5139966;27;20202;-63
2022/05/25 06:46:59;;;;;;;0.90;0.82;;;;;;;;;;5139393;27;20194;-63
2022/05/25 06:49:27;;;;;;;1.45;0.88;;;;;;;;;;5138993;27;20194;-63
2022/05/25 06:51:54;;;;;;;1.40;1.02;;;;;;;;;;5139362;27;20201;-62
2022/05/25 06:54:22;;;;;;;1.50;0.90;;;;;;;;;;5139475;27;20560;-63
2022/05/25 06:56:49;;;;;;;0.98;0.90;;;;;;;;;;5138921;27;20233;-63
2022/05/25 06:59:17;;;;;;;0.93;0.90;;;;;;;;;;5139296;27;20198;-62
2022/05/25 07:01:46;;;;;;;2.05;0.90;;;;;;;;;;5139345;27;20205;-63
2022/05/25 07:04:13;;;;;;;0.73;0.73;;;;;;;;;;5139364;27;20753;-63
2022/05/25 07:06:40;;;;;;;0.85;0.77;;;;;;;;;;5139208;27;20199;-63
2022/05/25 07:09:08;;;;;;;1.95;0.90;;;;;;;;;;5139551;27;20270;-63
2022/05/25 07:11:36;;;;;;;1.15;0.93;;;;;;;;;;5139922;27;20202;-62
2022/05/25 07:14:04;;;;;;;1.08;1.08;;;;;;;;;;5139687;27;20222;-62
2022/05/25 07:16:31;;;;;;;1.10;1.00;;;;;;;;;;5139334;27;20209;-63
2022/05/25 07:19:00;;;;;;;1.85;0.70;;;;;;;;;;5139480;27;20288;-63
2022/05/25 07:21:31;;;;;;;1.00;0.95;;;;;;;;;;5139199;27;20229;-62
2022/05/25 07:23:59;;;;;;;1.05;0.90;;;;;;;;;;5139536;27;20230;-62
2022/05/25 07:26:28;;;;;;;2.13;0.98;;;;;;;;;;5139354;27;20202;-62
2022/05/25 07:28:55;;;;;;;0.90;0.90;;;;;;;;;;5138942;27;20746;-63
2022/05/25 07:31:24;;;;;;;1.20;1.10;;;;;;;;;;5138958;27;20202;-62
2022/05/25 07:33:55;;;;;;;1.10;0.88;;;;;;;;;;5138551;27;20218;-62
2022/05/25 07:36:25;;;;;;;2.40;1.08;;;;;;;;;;5138398;27;20209;-62
2022/05/25 07:38:54;;;;;;;0.80;0.80;;;;;;;;;;5138790;27;20206;-62
2022/05/25 07:41:21;;;;;;;1.27;0.88;;;;;;;;;;5138323;27;20619;-63
2022/05/25 07:43:53;;;;;;;1.90;0.80;;;;;;;;;;5137898;27;20198;-63
2022/05/25 07:46:21;;;;;;;1.20;0.95;;;;;;;;;;5137514;27;20671;-62
2022/05/25 07:48:48;;;;;;;1.25;0.85;;;;;;;;;;5137638;27;20202;-62
2022/05/25 07:51:16;;;;;;;1.73;0.90;;;;;;;;;;5138242;27;20203;-62
2022/05/25 07:53:57;;;;;;;0.95;0.85;;;;;;;;;;5137113;27;20318;-64
2022/05/25 07:56:25;;;;;;;0.80;0.80;;;;;;;;;;5137448;27;20325;-63
2022/05/25 07:58:54;;;;;;;2.42;1.00;;;;;;;;;;5136963;27;20201;-62
2022/05/25 08:05:43;;;;;;;0.98;0.90;;;;;;;;;;5138469;27;20506;-61
2022/05/25 08:06:57;;;;;;;1.42;0.80;;;;;;;;;;5137810;27;20677;-63
2022/05/25 08:09:27;;;;;;;0.80;0.80;;;;;;;;;;5137704;27;20573;-62
2022/05/25 08:11:55;;;;;;;1.02;0.90;;;;;;;;;;5137855;27;20581;-63
2022/05/25 08:14:23;;;;;;;0.93;0.80;;;;;;;;;;5138240;27;20339;-63
2022/05/25 08:16:50;;;;;;;1.40;1.00;;;;;;;;;;5138712;27;20202;-63
2022/05/25 08:19:17;;;;;;;0.82;0.82;;;;;;;;;;5137079;27;20463;-62
2022/05/25 08:21:45;;;;;;;1.00;0.90;;;;;;;;;;5137492;27;20190;-62
2022/05/25 08:24:12;;;;;;;0.82;0.73;;;;;;;;;;5137797;27;20581;-63
2022/05/25 08:26:41;;;;;;;1.25;0.95;;;;;;;;;;5138191;27;20236;-63
2022/05/25 08:29:08;;;;;;;0.95;0.80;;;;;;;;;;5137177;27;20600;-62
2022/05/25 08:31:36;;;;;;;0.80;0.80;;;;;;;;;;5117207;28;20191;-62
2022/05/25 08:34:03;;;;;;;0.88;0.88;;;;;;;;;;5116518;28;20219;-62
2022/05/25 08:36:31;;;;;;;0.80;0.77;;;;;;;;;;5116770;28;20207;-63
2022/05/25 08:38:59;;;;;;;1.73;0.82;;;;;;;;;;5131692;27;20198;-62
2022/05/25 08:41:29;;;;;;;0.98;0.80;;;;;;;;;;5137566;27;20203;-62
2022/05/25 08:43:58;;;;;;;1.00;0.77;;;;;;;;;;5138145;27;20217;-63
2022/05/25 08:46:26;;;;;;;1.00;0.70;;;;;;;;;;5137521;27;20199;-62
2022/05/25 08:48:54;;;;;;;1.10;0.90;;;;;;;;;;5136731;27;20204;-62
2022/05/25 08:51:22;;;;;;;0.98;0.90;;;;;;;;;;5137611;27;20202;-62
2022/05/25 08:53:50;;;;;;;1.10;0.80;;;;;;;;;;5137316;27;20233;-63
2022/05/25 08:56:20;;;;;;;1.15;0.70;;;;;;;;;;5136126;27;20242;-63
2022/05/25 08:58:49;;;;;;;0.80;0.80;;;;;;;;;;5136967;27;20194;-63
2022/05/25 09:01:22;;;;;;;0.90;0.80;;;;;;;;;;5136486;27;20712;-62
2022/05/25 09:03:54;;;;;;;0.60;0.60;;;;;;;;;;5136987;27;20479;-62
2022/05/25 09:06:27;;;;;;;0.73;0.73;;;;;;;;;;5136815;27;20657;-63
2022/05/25 09:08:59;;;;;;;0.80;0.80;;;;;;;;;;5136898;27;20209;-62
2022/05/25 09:11:29;;;;;;;0.95;0.90;;;;;;;;;;5136680;27;20206;-63
2022/05/25 09:13:59;;;;;;;1.58;0.80;;;;;;;;;;5136779;27;20228;-62
2022/05/25 09:16:29;;;;;;;0.80;0.77;;;;;;;;;;5137250;27;20202;-63
2022/05/25 09:19:03;;;;;;;1.08;0.90;;;;;;;;;;5135874;27;20210;-63
2022/05/25 09:21:32;;;;;;;0.80;0.75;;;;;;;;;;5136346;27;20271;-63
2022/05/25 09:24:02;;;;;;;0.73;0.70;;;;;;;;;;5135974;27;20210;-63
2022/05/25 09:26:31;;;;;;;0.80;0.80;;;;;;;;;;5136097;27;20198;-63
2022/05/25 09:29:01;;;;;;;0.73;0.73;;;;;;;;;;5135371;27;20198;-63
2022/05/25 09:31:34;;;;;;;0.63;0.60;;;;;;;;;;5135753;27;20206;-63
2022/05/25 09:34:05;;;;;;;0.70;0.70;;;;;;;;;;5135640;27;20229;-62
2022/05/25 09:36:38;;;;;;;1.30;0.70;;;;;;;;;;5135366;27;20754;-62
2022/05/25 09:39:07;;;;;;;1.38;0.73;;;;;;;;;;5134959;27;20202;-62
2022/05/25 09:41:35;;;;;;;1.80;0.88;;;;;;;;;;5135106;27;20194;-62
2022/05/25 09:44:06;;;;;;;0.80;0.80;;;;;;;;;;5136055;27;20198;-63
2022/05/25 09:46:38;;;;;;;1.23;1.00;;;;;;;;;;5135448;27;20202;-62
2022/05/25 09:49:06;;;;;;;1.65;0.90;;;;;;;;;;5134756;27;20194;-63
2022/05/25 09:51:36;;;;;;;0.77;0.77;;;;;;;;;;5135464;27;20198;-62
2022/05/25 09:54:06;;;;;;;1.45;1.00;;;;;;;;;;5134323;27;20237;-62
2022/05/25 09:56:38;;;;;;;1.75;0.70;;;;;;;;;;5135244;27;20272;-61
2022/05/25 09:59:07;;;;;;;1.17;0.82;;;;;;;;;;5135376;27;20263;-62
2022/05/25 10:01:42;;;;;;;2.13;0.85;;;;;;;;;;5135363;27;20252;-62
2022/05/25 10:04:10;;;;;;;1.65;0.93;;;;;;;;;;5135148;27;20597;-62
2022/05/25 10:06:49;;;;;;;0.95;0.70;;;;;;;;;;5135024;27;20208;-63
2022/05/25 10:09:19;;;;;;;1.10;0.80;;;;;;;;;;5134596;27;20226;-62
2022/05/25 10:11:48;;;;;;;1.17;0.75;;;;;;;;;;5134459;27;20207;-63
2022/05/25 10:14:26;;;;;;;1.15;0.65;;;;;;;;;;5134305;27;20659;-62
2022/05/25 10:16:56;;;;;;;0.70;0.70;;;;;;;;;;5134775;27;20565;-62
2022/05/25 10:19:24;;;;;;;0.70;0.70;;;;;;;;;;5133235;27;20194;-62
2022/05/25 10:21:52;;;;;;;1.30;0.60;;;;;;;;;;5134855;27;20198;-62
2022/05/25 10:24:26;;;;;;;1.38;0.80;;;;;;;;;;5135735;28;20198;-62
2022/05/25 10:26:54;;;;;;;0.60;0.60;;;;;;;;;;5135303;28;20263;-62
2022/05/25 10:37:58;;;;;;;1.75;0.80;;;;;;;;;;5134444;28;20203;-63
2022/05/25 10:40:26;;;;;;;0.70;0.70;;;;;;;;;;5134888;28;20202;-62
2022/05/25 10:42:58;;;;;;;0.60;0.60;;;;;;;;;;5134774;28;20194;-62
2022/05/25 10:45:32;;;;;;;0.70;0.70;;;;;;;;;;5134698;28;20198;-63
2022/05/25 10:48:07;;;;;;;0.85;0.80;;;;;;;;;;5133708;28;20210;-63
2022/05/25 10:50:48;;;;;;;0.68;0.50;;;;;;;;;;5134366;28;20459;-63
2022/05/25 10:53:21;;;;;;;0.70;0.70;;;;;;;;;;5134354;28;20202;-63
2022/05/25 10:55:51;;;;;;;0.90;0.65;;;;;;;;;;5133382;28;20324;-63
2022/05/25 10:58:31;;;;;;;0.60;0.60;;;;;;;;;;5133480;28;20191;-63
2022/05/25 11:01:03;;;;;;;1.05;0.70;;;;;;;;;;5130010;28;20209;-63
2022/05/25 11:03:43;;;;;;;0.70;0.70;;;;;;;;;;5133480;28;20694;-63
2022/05/25 11:06:19;;;;;;;0.60;0.60;;;;;;;;;;5132431;28;20212;-63
2022/05/25 11:08:51;;;;;;;1.00;0.60;;;;;;;;;;5130653;28;20305;-62
2022/05/25 11:11:23;;;;;;;0.77;0.70;;;;;;;;;;5131829;28;20202;-62
2022/05/25 11:14:02;;;;;;;1.48;0.70;;;;;;;;;;5132415;28;20229;-62
2022/05/25 11:16:35;;;;;;;1.17;0.90;;;;;;;;;;5132422;28;20194;-63
2022/05/25 11:19:20;;;;;;;0.50;0.50;;;;;;;;;;5133713;27;20213;-62
2022/05/25 11:21:54;;;;;;;1.55;0.60;;;;;;;;;;5124887;27;20793;-62
2022/05/25 11:24:26;;;;;;;1.10;0.65;;;;;;;;;;5135657;27;20217;-62
2022/05/25 11:27:00;;;;;;;0.88;0.60;;;;;;;;;;5135584;27;20515;-63
2022/05/25 11:29:39;;;;;;;0.90;0.80;;;;;;;;;;5136060;27;20696;-62
2022/05/25 11:32:12;;;;;;;0.75;0.70;;;;;;;;;;5134028;27;20255;-62
2022/05/25 11:34:46;;;;;;;0.80;0.60;;;;;;;;;;5134861;27;20222;-62
2022/05/25 11:37:20;;;;;;;0.70;0.70;;;;;;;;;;5133831;27;20210;-62
2022/05/25 11:39:53;;;;;;;0.98;0.73;;;;;;;;;;5134473;27;20344;-62
2022/05/25 11:42:29;;;;;;;0.95;0.60;;;;;;;;;;5134758;27;20213;-62
2022/05/25 11:45:04;;;;;;;0.52;0.40;;;;;;;;;;5136880;27;20189;-61
2022/05/25 11:47:44;;;;;;;0.73;0.65;;;;;;;;;;5135299;27;20202;-62
2022/05/25 11:50:26;;;;;;;0.70;0.60;;;;;;;;;;5134650;27;20213;-63
2022/05/25 11:53:18;;;;;;;0.80;0.50;;;;;;;;;;5133385;27;20204;-62
2022/05/25 11:55:49;;;;;;;0.60;0.52;;;;;;;;;;5135160;27;20391;-61
2022/05/25 11:58:23;;;;;;;0.80;0.70;;;;;;;;;;5134908;27;20206;-63
2022/05/25 12:00:54;;;;;;;0.60;0.60;;;;;;;;;;5135400;27;20227;-61
2022/05/25 12:03:28;;;;;;;0.70;0.68;;;;;;;;;;5135100;27;20712;-63
2022/05/25 12:06:00;;;;;;;0.60;0.60;;;;;;;;;;5135026;27;20202;-62
2022/05/25 12:08:36;;;;;;;0.70;0.50;;;;;;;;;;5134562;27;20202;-62
2022/05/25 12:11:07;;;;;;;0.70;0.70;;;;;;;;;;5134387;27;20232;-62
2022/05/25 12:13:40;;;;;;;0.63;0.63;;;;;;;;;;5133466;27;20202;-62
2022/05/25 12:16:12;;;;;;;0.60;0.60;;;;;;;;;;5134246;27;20460;-62
2022/05/25 12:18:45;;;;;;;0.40;0.40;;;;;;;;;;5132284;27;20210;-62
2022/05/25 12:21:14;;;;;;;1.17;0.57;;;;;;;;;;5133819;27;20213;-62
2022/05/25 12:23:44;;;;;;;0.55;0.50;;;;;;;;;;5134413;27;20215;-62
2022/05/25 12:26:15;;;;;;;0.50;0.50;;;;;;;;;;5134013;27;20452;-62
2022/05/25 12:28:44;;;;;;;0.70;0.52;;;;;;;;;;5135839;27;20217;-62
2022/05/25 12:31:14;;;;;;;0.98;0.60;;;;;;;;;;5133608;27;20198;-61
2022/05/25 12:33:42;;;;;;;0.60;0.57;;;;;;;;;;5134877;27;20267;-62
2022/05/25 12:36:10;;;;;;;0.60;0.60;;;;;;;;;;5134134;27;20212;-62
2022/05/25 12:38:39;;;;;;;0.70;0.70;;;;;;;;;;5134481;27;20225;-61
2022/05/25 12:41:40;;;;;;;0.65;0.60;;;;;;;;;;5133557;27;20194;-62
2022/05/25 12:50:01;;;;;;;0.68;0.57;;;;;;;;;;5027524;28;20596;-62
2022/05/25 12:52:50;;;;;;;1.20;0.57;;;;;;;;;;5095048;27;20209;-61
2022/05/25 12:55:33;;;;;;;0.98;0.40;;;;;;;;;;5134090;27;20350;-61
2022/05/25 12:58:01;;;;;;;0.50;0.40;;;;;;;;;;5133254;27;20592;-61
2022/05/25 13:00:34;;;;;;;0.65;0.60;;;;;;;;;;5134496;27;20299;-62
2022/05/25 13:03:14;;;;;;;0.65;0.50;;;;;;;;;;5133197;27;20203;-61
2022/05/25 13:05:59;;;;;;;0.63;0.40;;;;;;;;;;5133943;27;20198;-62
2022/05/25 13:08:59;;;;;;;1.15;0.60;;;;;;;;;;5132910;27;20195;-62
2022/05/25 13:11:34;;;;;;;0.60;0.40;;;;;;;;;;5132129;27;20228;-62
2022/05/25 13:14:02;;;;;;;0.63;0.50;;;;;;;;;;5133008;27;20202;-62
2022/05/25 13:16:48;;;;;;;0.60;0.60;;;;;;;;;;5132373;27;20211;-62
2022/05/25 13:19:17;;;;;;;0.50;0.50;;;;;;;;;;5134604;27;20198;-62
2022/05/25 13:21:46;;;;;;;0.55;0.50;;;;;;;;;;5132682;27;20198;-62
2022/05/25 13:24:34;;;;;;;0.60;0.60;;;;;;;;;;5133740;27;20209;-62
2022/05/25 13:27:14;;;;;;;0.50;0.50;;;;;;;;;;5132760;27;20206;-61
2022/05/25 13:29:47;;;;;;;0.50;0.50;;;;;;;;;;5133259;27;20206;-62
2022/05/25 13:32:16;;;;;;;0.90;0.40;;;;;;;;;;5131432;27;20394;-61
2022/05/25 13:34:45;;;;;;;0.90;0.50;;;;;;;;;;5132391;27;20222;-62
2022/05/25 13:37:13;;;;;;;0.85;0.68;;;;;;;;;;5133030;27;20198;-62
2022/05/25 13:39:41;;;;;;;0.47;0.40;;;;;;;;;;5133658;27;20230;-62
2022/05/25 13:42:10;;;;;;;0.50;0.50;;;;;;;;;;5133166;27;20217;-62
2022/05/25 13:44:42;;;;;;;0.55;0.55;;;;;;;;;;5132664;27;20190;-62
2022/05/25 13:47:09;;;;;;;0.80;0.50;;;;;;;;;;5132982;27;20258;-61
2022/05/25 13:49:39;;;;;;;0.80;0.50;;;;;;;;;;5133484;27;20202;-61
2022/05/25 13:52:18;;;;;;;0.75;0.60;;;;;;;;;;5131762;27;20386;-62
2022/05/25 13:54:46;;;;;;;0.50;0.50;;;;;;;;;;5131559;27;20218;-62
2022/05/25 13:57:16;;;;;;;0.70;0.60;;;;;;;;;;5131773;27;20476;-62
2022/05/25 13:59:44;;;;;;;0.68;0.57;;;;;;;;;;5131345;28;20692;-62
2022/05/25 14:02:20;;;;;;;0.60;0.45;;;;;;;;;;5133527;28;20627;-62
2022/05/25 14:04:48;;;;;;;0.90;0.60;;;;;;;;;;5133945;28;20680;-62
2022/05/25 14:07:25;;;;;;;0.60;0.40;;;;;;;;;;5131893;28;20297;-62
2022/05/25 14:12:37;;;;;;;0.60;0.55;;;;;;;;;;5130740;28;20420;-62
2022/05/25 14:15:06;;;;;;;0.60;0.60;;;;;;;;;;5133646;28;20423;-61
2022/05/25 14:17:35;;;;;;;0.82;0.40;;;;;;;;;;5133736;28;20205;-62
2022/05/25 14:20:05;;;;;;;1.70;0.68;;;;;;;;;;5132557;28;20205;-62
2022/05/25 14:22:36;;;;;;;1.10;0.65;;;;;;;;;;5131376;28;20292;-61
2022/05/25 14:25:12;;;;;;;0.68;0.50;;;;;;;;;;5131133;28;20498;-62
2022/05/25 14:27:40;;;;;;;0.45;0.45;;;;;;;;;;5131644;28;20330;-62
2022/05/25 14:30:16;;;;;;;1.15;0.50;;;;;;;;;;5130415;28;20309;-62
2022/05/25 14:32:46;;;;;;;0.73;0.73;;;;;;;;;;5129471;28;20202;-61
2022/05/25 14:35:14;;;;;;;1.13;0.57;;;;;;;;;;5129610;28;20337;-62
2022/05/25 14:37:43;;;;;;;0.50;0.50;;;;;;;;;;5131209;28;20198;-61
2022/05/25 14:40:18;;;;;;;1.30;0.70;;;;;;;;;;5130804;28;20202;-62
2022/05/25 14:42:53;;;;;;;1.35;0.50;;;;;;;;;;5130797;28;20266;-62
2022/05/25 14:45:21;;;;;;;0.90;0.60;;;;;;;;;;5130537;28;20297;-61
2022/05/25 14:47:49;;;;;;;0.82;0.55;;;;;;;;;;5130057;28;20198;-61
2022/05/25 14:50:21;;;;;;;0.47;0.47;;;;;;;;;;5130444;28;20209;-63
2022/05/25 14:52:56;;;;;;;2.25;0.60;;;;;;;;;;5130103;27;20198;-62
2022/05/25 14:55:26;;;;;;;0.57;0.43;;;;;;;;;;5087755;27;1285445;-62
2022/05/25 14:58:13;;;;;;;1.52;0.60;;;;;;;;;;5135933;27;20330;-62
2022/05/25 15:00:42;;;;;;;0.95;0.50;;;;;;;;;;5134978;27;20204;-62
2022/05/25 15:03:10;;;;;;;0.70;0.60;;;;;;;;;;5134440;27;20204;-62
2022/05/25 15:05:47;;;;;;;0.60;0.60;;;;;;;;;;5135031;27;20565;-62
2022/05/25 15:08:27;;;;;;;0.47;0.47;;;;;;;;;;5134548;27;20209;-62
2022/05/25 15:10:56;;;;;;;0.80;0.70;;;;;;;;;;5132867;27;20624;-62
2022/05/25 15:18:29;;;;;;;0.82;0.70;;;;;;;;;;5135942;27;20209;-62
2022/05/25 15:19:05;;;;;;;2.35;0.52;;;;;;;;;;5134818;27;20246;-63
2022/05/25 15:21:34;;;;;;;0.68;0.50;;;;;;;;;;5136260;27;20206;-62
2022/05/25 15:24:04;;;;;;;1.05;0.60;;;;;;;;;;5135534;27;20585;-63
2022/05/25 15:26:33;;;;;;;0.95;0.60;;;;;;;;;;5134149;27;20411;-62
2022/05/25 15:29:14;;;;;;;0.50;0.50;;;;;;;;;;5136192;27;20201;-62
2022/05/25 15:31:42;;;;;;;0.95;0.50;;;;;;;;;;5135051;27;20209;-62
2022/05/25 15:34:10;;;;;;;0.80;0.50;;;;;;;;;;5136055;27;20304;-61
2022/05/25 15:36:37;;;;;;;1.15;0.50;;;;;;;;;;5135554;27;20226;-62